sensor_id;sensor_type;location;lat;lon;timestamp;P1;durP1;ratioP1;P2;durP2;ratioP2
44328;SDS011;30039;51.462;6.892;2023-02-01T00:00:16;14.55;;;4.55;;
44328;SDS011;30039;51.462;6.892;2023-02-01T00:03:01;13.27;;;4.43;;
44328;SDS011;30039;51.462;6.892;2023-02-01T00:05:57;12.95;;;4.03;;
44328;SDS011;30039;51.462;6.892;2023-02-01T00:08:43;10.13;;;3.60;;
44328;SDS011;30039;51.462;6.892;2023-02-01T00:11:29;15.32;;;4.07;;
44328;SDS011;30039;51.462;6.892;2023-02-01T00:14:15;13.30;;;3.65;;
44328;SDS011;30039;51.462;6.892;2023-02-01T00:17:01;12.95;;;3.40;;
44328;SDS011;30039;51.462;6.892;2023-02-01T00:19:47;18.70;;;3.92;;
44328;SDS011;30039;51.462;6.892;2023-02-01T00:22:33;12.45;;;3.67;;
44328;SDS011;30039;51.462;6.892;2023-02-01T00:25:20;13.43;;;3.45;;
44328;SDS011;30039;51.462;6.892;2023-02-01T00:28:08;16.23;;;3.72;;
44328;SDS011;30039;51.462;6.892;2023-02-01T00:30:56;11.60;;;3.30;;
44328;SDS011;30039;51.462;6.892;2023-02-01T00:33:42;12.88;;;3.00;;
44328;SDS011;30039;51.462;6.892;2023-02-01T00:36:28;11.38;;;3.47;;
44328;SDS011;30039;51.462;6.892;2023-02-01T00:39:14;6.63;;;2.72;;
44328;SDS011;30039;51.462;6.892;2023-02-01T00:42:00;9.38;;;2.72;;
44328;SDS011;30039;51.462;6.892;2023-02-01T00:44:47;13.25;;;3.65;;
44328;SDS011;30039;51.462;6.892;2023-02-01T00:47:33;14.32;;;3.38;;
44328;SDS011;30039;51.462;6.892;2023-02-01T00:50:19;11.93;;;3.75;;
44328;SDS011;30039;51.462;6.892;2023-02-01T00:53:05;13.65;;;3.30;;
44328;SDS011;30039;51.462;6.892;2023-02-01T00:55:52;13.75;;;3.38;;
44328;SDS011;30039;51.462;6.892;2023-02-01T00:58:37;12.20;;;2.95;;
44328;SDS011;30039;51.462;6.892;2023-02-01T01:01:24;12.23;;;2.90;;
44328;SDS011;30039;51.462;6.892;2023-02-01T01:04:10;14.93;;;3.33;;
44328;SDS011;30039;51.462;6.892;2023-02-01T01:06:56;9.40;;;3.75;;
44328;SDS011;30039;51.462;6.892;2023-02-01T01:09:41;12.60;;;4.32;;
44328;SDS011;30039;51.462;6.892;2023-02-01T01:12:27;17.02;;;3.55;;
44328;SDS011;30039;51.462;6.892;2023-02-01T01:15:14;15.50;;;4.03;;
44328;SDS011;30039;51.462;6.892;2023-02-01T01:18:00;12.27;;;4.30;;
44328;SDS011;30039;51.462;6.892;2023-02-01T01:20:47;10.82;;;4.05;;
44328;SDS011;30039;51.462;6.892;2023-02-01T01:23:33;11.65;;;4.07;;
44328;SDS011;30039;51.462;6.892;2023-02-01T01:26:23;15.55;;;4.20;;
44328;SDS011;30039;51.462;6.892;2023-02-01T01:29:09;17.02;;;4.18;;
44328;SDS011;30039;51.462;6.892;2023-02-01T01:31:56;11.57;;;3.95;;
44328;SDS011;30039;51.462;6.892;2023-02-01T01:34:42;13.65;;;4.22;;
44328;SDS011;30039;51.462;6.892;2023-02-01T01:37:28;13.70;;;4.10;;
44328;SDS011;30039;51.462;6.892;2023-02-01T01:40:13;10.13;;;3.92;;
44328;SDS011;30039;51.462;6.892;2023-02-01T01:43:01;14.63;;;4.30;;
44328;SDS011;30039;51.462;6.892;2023-02-01T01:45:48;11.15;;;4.38;;
44328;SDS011;30039;51.462;6.892;2023-02-01T01:48:34;12.50;;;3.92;;
44328;SDS011;30039;51.462;6.892;2023-02-01T01:51:20;18.75;;;4.20;;
44328;SDS011;30039;51.462;6.892;2023-02-01T01:57:09;13.02;;;4.10;;
44328;SDS011;30039;51.462;6.892;2023-02-01T02:02:57;11.95;;;3.55;;
44328;SDS011;30039;51.462;6.892;2023-02-01T02:05:44;15.73;;;3.55;;
44328;SDS011;30039;51.462;6.892;2023-02-01T02:08:30;16.48;;;4.03;;
44328;SDS011;30039;51.462;6.892;2023-02-01T02:11:16;10.40;;;3.95;;
44328;SDS011;30039;51.462;6.892;2023-02-01T02:14:03;12.23;;;3.22;;
44328;SDS011;30039;51.462;6.892;2023-02-01T02:17:27;14.65;;;3.40;;
44328;SDS011;30039;51.462;6.892;2023-02-01T02:25:51;14.05;;;3.55;;
44328;SDS011;30039;51.462;6.892;2023-02-01T02:34:26;9.57;;;2.88;;
44328;SDS011;30039;51.462;6.892;2023-02-01T02:40:03;13.15;;;2.80;;
44328;SDS011;30039;51.462;6.892;2023-02-01T02:43:05;14.73;;;2.93;;
44328;SDS011;30039;51.462;6.892;2023-02-01T02:46:16;12.18;;;3.00;;
44328;SDS011;30039;51.462;6.892;2023-02-01T02:49:31;17.83;;;2.97;;
44328;SDS011;30039;51.462;6.892;2023-02-01T02:52:19;13.18;;;2.75;;
44328;SDS011;30039;51.462;6.892;2023-02-01T02:55:24;11.80;;;2.83;;
44328;SDS011;30039;51.462;6.892;2023-02-01T02:58:12;11.20;;;2.95;;
44328;SDS011;30039;51.462;6.892;2023-02-01T03:01:17;15.23;;;3.10;;
44328;SDS011;30039;51.462;6.892;2023-02-01T03:04:28;11.80;;;2.70;;
44328;SDS011;30039;51.462;6.892;2023-02-01T03:08:02;9.77;;;2.42;;
44328;SDS011;30039;51.462;6.892;2023-02-01T03:24:39;10.75;;;2.60;;
44328;SDS011;30039;51.462;6.892;2023-02-01T03:27:35;15.23;;;2.50;;
44328;SDS011;30039;51.462;6.892;2023-02-01T03:30:30;11.18;;;2.67;;
44328;SDS011;30039;51.462;6.892;2023-02-01T03:33:21;9.82;;;2.45;;
44328;SDS011;30039;51.462;6.892;2023-02-01T03:39:07;11.27;;;2.78;;
44328;SDS011;30039;51.462;6.892;2023-02-01T03:41:58;15.48;;;2.60;;
44328;SDS011;30039;51.462;6.892;2023-02-01T03:47:39;11.32;;;2.08;;
44328;SDS011;30039;51.462;6.892;2023-02-01T03:50:26;9.73;;;2.47;;
44328;SDS011;30039;51.462;6.892;2023-02-01T03:53:14;10.70;;;2.45;;
44328;SDS011;30039;51.462;6.892;2023-02-01T03:56:02;14.45;;;3.28;;
44328;SDS011;30039;51.462;6.892;2023-02-01T03:58:47;12.52;;;3.08;;
44328;SDS011;30039;51.462;6.892;2023-02-01T04:01:44;12.98;;;2.80;;
44328;SDS011;30039;51.462;6.892;2023-02-01T04:04:30;15.52;;;2.80;;
44328;SDS011;30039;51.462;6.892;2023-02-01T04:07:24;16.67;;;3.10;;
44328;SDS011;30039;51.462;6.892;2023-02-01T04:10:10;15.95;;;3.33;;
44328;SDS011;30039;51.462;6.892;2023-02-01T04:12:56;12.55;;;3.38;;
44328;SDS011;30039;51.462;6.892;2023-02-01T04:15:42;9.80;;;2.50;;
44328;SDS011;30039;51.462;6.892;2023-02-01T04:18:27;16.90;;;3.50;;
44328;SDS011;30039;51.462;6.892;2023-02-01T04:21:13;16.52;;;2.92;;
44328;SDS011;30039;51.462;6.892;2023-02-01T04:23:59;12.55;;;3.30;;
44328;SDS011;30039;51.462;6.892;2023-02-01T04:26:46;11.98;;;2.72;;
44328;SDS011;30039;51.462;6.892;2023-02-01T04:29:32;10.70;;;2.60;;
44328;SDS011;30039;51.462;6.892;2023-02-01T04:32:18;7.40;;;2.55;;
44328;SDS011;30039;51.462;6.892;2023-02-01T04:35:05;16.75;;;3.10;;
44328;SDS011;30039;51.462;6.892;2023-02-01T04:37:51;10.27;;;2.85;;
44328;SDS011;30039;51.462;6.892;2023-02-01T04:40:37;22.27;;;2.65;;
44328;SDS011;30039;51.462;6.892;2023-02-01T04:43:23;16.52;;;3.20;;
44328;SDS011;30039;51.462;6.892;2023-02-01T04:46:08;12.30;;;2.70;;
44328;SDS011;30039;51.462;6.892;2023-02-01T04:48:54;12.60;;;2.53;;
44328;SDS011;30039;51.462;6.892;2023-02-01T04:51:42;12.25;;;2.67;;
44328;SDS011;30039;51.462;6.892;2023-02-01T04:54:28;18.48;;;2.85;;
44328;SDS011;30039;51.462;6.892;2023-02-01T04:57:13;9.00;;;2.40;;
44328;SDS011;30039;51.462;6.892;2023-02-01T05:00:01;13.02;;;2.95;;
44328;SDS011;30039;51.462;6.892;2023-02-01T05:02:48;11.68;;;2.60;;
44328;SDS011;30039;51.462;6.892;2023-02-01T05:05:34;11.65;;;2.80;;
44328;SDS011;30039;51.462;6.892;2023-02-01T05:08:20;14.13;;;2.67;;
44328;SDS011;30039;51.462;6.892;2023-02-01T05:11:08;14.90;;;2.92;;
44328;SDS011;30039;51.462;6.892;2023-02-01T05:14:14;13.65;;;2.45;;
44328;SDS011;30039;51.462;6.892;2023-02-01T05:16:59;10.95;;;2.80;;
44328;SDS011;30039;51.462;6.892;2023-02-01T05:19:45;14.70;;;2.90;;
44328;SDS011;30039;51.462;6.892;2023-02-01T05:22:34;16.48;;;2.40;;
44328;SDS011;30039;51.462;6.892;2023-02-01T05:25:20;10.70;;;2.42;;
44328;SDS011;30039;51.462;6.892;2023-02-01T05:28:06;13.68;;;2.65;;
44328;SDS011;30039;51.462;6.892;2023-02-01T05:30:52;9.90;;;2.15;;
44328;SDS011;30039;51.462;6.892;2023-02-01T05:33:38;16.58;;;2.88;;
44328;SDS011;30039;51.462;6.892;2023-02-01T05:36:24;16.73;;;2.95;;
44328;SDS011;30039;51.462;6.892;2023-02-01T05:39:10;16.08;;;2.67;;
44328;SDS011;30039;51.462;6.892;2023-02-01T05:41:56;14.82;;;2.92;;
44328;SDS011;30039;51.462;6.892;2023-02-01T05:44:42;15.35;;;2.08;;
44328;SDS011;30039;51.462;6.892;2023-02-01T05:47:28;13.38;;;2.65;;
44328;SDS011;30039;51.462;6.892;2023-02-01T05:50:13;14.27;;;2.60;;
44328;SDS011;30039;51.462;6.892;2023-02-01T05:52:59;10.75;;;2.47;;
44328;SDS011;30039;51.462;6.892;2023-02-01T05:55:46;13.77;;;2.30;;
44328;SDS011;30039;51.462;6.892;2023-02-01T05:58:32;17.95;;;3.65;;
44328;SDS011;30039;51.462;6.892;2023-02-01T06:01:17;16.70;;;3.03;;
44328;SDS011;30039;51.462;6.892;2023-02-01T06:04:03;13.75;;;2.83;;
44328;SDS011;30039;51.462;6.892;2023-02-01T06:06:49;16.30;;;2.78;;
44328;SDS011;30039;51.462;6.892;2023-02-01T06:09:36;12.15;;;2.67;;
44328;SDS011;30039;51.462;6.892;2023-02-01T06:12:22;13.38;;;2.63;;
44328;SDS011;30039;51.462;6.892;2023-02-01T06:15:07;15.57;;;2.78;;
44328;SDS011;30039;51.462;6.892;2023-02-01T06:17:53;16.58;;;3.00;;
44328;SDS011;30039;51.462;6.892;2023-02-01T06:20:40;13.57;;;3.20;;
44328;SDS011;30039;51.462;6.892;2023-02-01T06:23:25;14.50;;;3.13;;
44328;SDS011;30039;51.462;6.892;2023-02-01T06:26:11;17.08;;;3.05;;
44328;SDS011;30039;51.462;6.892;2023-02-01T06:28:57;18.35;;;3.70;;
44328;SDS011;30039;51.462;6.892;2023-02-01T06:31:42;16.73;;;2.85;;
44328;SDS011;30039;51.462;6.892;2023-02-01T06:34:29;9.82;;;2.60;;
44328;SDS011;30039;51.462;6.892;2023-02-01T06:37:14;15.60;;;2.72;;
44328;SDS011;30039;51.462;6.892;2023-02-01T06:40:00;11.63;;;2.25;;
44328;SDS011;30039;51.462;6.892;2023-02-01T06:42:47;14.52;;;3.03;;
44328;SDS011;30039;51.462;6.892;2023-02-01T06:45:33;13.02;;;3.33;;
44328;SDS011;30039;51.462;6.892;2023-02-01T06:48:19;15.23;;;3.55;;
44328;SDS011;30039;51.462;6.892;2023-02-01T06:51:04;10.13;;;2.58;;
44328;SDS011;30039;51.462;6.892;2023-02-01T06:53:50;21.50;;;3.22;;
44328;SDS011;30039;51.462;6.892;2023-02-01T06:56:36;12.10;;;2.63;;
44328;SDS011;30039;51.462;6.892;2023-02-01T06:59:22;19.52;;;2.75;;
44328;SDS011;30039;51.462;6.892;2023-02-01T07:02:10;14.38;;;2.40;;
44328;SDS011;30039;51.462;6.892;2023-02-01T07:04:56;13.60;;;3.10;;
44328;SDS011;30039;51.462;6.892;2023-02-01T07:07:42;11.38;;;2.55;;
44328;SDS011;30039;51.462;6.892;2023-02-01T07:10:28;11.88;;;2.47;;
44328;SDS011;30039;51.462;6.892;2023-02-01T07:13:13;14.38;;;2.90;;
44328;SDS011;30039;51.462;6.892;2023-02-01T07:16:03;18.38;;;3.25;;
44328;SDS011;30039;51.462;6.892;2023-02-01T07:18:50;14.32;;;2.22;;
44328;SDS011;30039;51.462;6.892;2023-02-01T07:21:36;12.93;;;2.75;;
44328;SDS011;30039;51.462;6.892;2023-02-01T07:24:22;15.40;;;2.85;;
44328;SDS011;30039;51.462;6.892;2023-02-01T07:27:08;14.93;;;2.65;;
44328;SDS011;30039;51.462;6.892;2023-02-01T07:29:54;17.88;;;3.00;;
44328;SDS011;30039;51.462;6.892;2023-02-01T07:32:41;14.27;;;2.97;;
44328;SDS011;30039;51.462;6.892;2023-02-01T07:35:31;17.90;;;2.88;;
44328;SDS011;30039;51.462;6.892;2023-02-01T07:38:17;13.98;;;2.35;;
44328;SDS011;30039;51.462;6.892;2023-02-01T07:41:03;8.35;;;2.30;;
44328;SDS011;30039;51.462;6.892;2023-02-01T07:43:52;16.85;;;3.70;;
44328;SDS011;30039;51.462;6.892;2023-02-01T07:46:38;13.98;;;2.58;;
44328;SDS011;30039;51.462;6.892;2023-02-01T07:49:24;13.68;;;2.40;;
44328;SDS011;30039;51.462;6.892;2023-02-01T07:52:10;12.13;;;2.95;;
44328;SDS011;30039;51.462;6.892;2023-02-01T07:54:58;13.85;;;3.03;;
44328;SDS011;30039;51.462;6.892;2023-02-01T07:57:44;11.57;;;2.78;;
44328;SDS011;30039;51.462;6.892;2023-02-01T08:00:29;14.55;;;2.70;;
44328;SDS011;30039;51.462;6.892;2023-02-01T08:03:33;16.15;;;2.78;;
44328;SDS011;30039;51.462;6.892;2023-02-01T08:06:19;16.70;;;2.47;;
44328;SDS011;30039;51.462;6.892;2023-02-01T08:09:06;9.80;;;2.92;;
44328;SDS011;30039;51.462;6.892;2023-02-01T08:11:53;10.82;;;2.92;;
44328;SDS011;30039;51.462;6.892;2023-02-01T08:14:39;14.88;;;3.08;;
44328;SDS011;30039;51.462;6.892;2023-02-01T08:17:27;21.05;;;3.10;;
44328;SDS011;30039;51.462;6.892;2023-02-01T08:20:13;15.23;;;2.85;;
44328;SDS011;30039;51.462;6.892;2023-02-01T08:22:59;22.23;;;3.13;;
44328;SDS011;30039;51.462;6.892;2023-02-01T08:25:45;12.32;;;2.72;;
44328;SDS011;30039;51.462;6.892;2023-02-01T08:28:31;17.48;;;2.97;;
44328;SDS011;30039;51.462;6.892;2023-02-01T08:31:18;17.10;;;3.00;;
44328;SDS011;30039;51.462;6.892;2023-02-01T08:34:05;14.13;;;3.08;;
44328;SDS011;30039;51.462;6.892;2023-02-01T08:36:52;18.73;;;2.53;;
44328;SDS011;30039;51.462;6.892;2023-02-01T08:39:43;13.45;;;2.72;;
44328;SDS011;30039;51.462;6.892;2023-02-01T08:42:30;14.93;;;3.13;;
44328;SDS011;30039;51.462;6.892;2023-02-01T08:45:34;13.33;;;3.20;;
44328;SDS011;30039;51.462;6.892;2023-02-01T08:48:21;20.85;;;3.08;;
44328;SDS011;30039;51.462;6.892;2023-02-01T08:51:10;14.38;;;3.05;;
44328;SDS011;30039;51.462;6.892;2023-02-01T08:53:56;24.15;;;2.92;;
44328;SDS011;30039;51.462;6.892;2023-02-01T08:56:42;25.38;;;3.17;;
44328;SDS011;30039;51.462;6.892;2023-02-01T08:59:29;12.15;;;2.83;;
44328;SDS011;30039;51.462;6.892;2023-02-01T09:02:15;11.02;;;2.63;;
44328;SDS011;30039;51.462;6.892;2023-02-01T09:05:01;17.65;;;3.42;;
44328;SDS011;30039;51.462;6.892;2023-02-01T09:07:46;13.80;;;2.83;;
44328;SDS011;30039;51.462;6.892;2023-02-01T09:10:32;14.18;;;3.20;;
44328;SDS011;30039;51.462;6.892;2023-02-01T09:13:18;19.77;;;2.97;;
44328;SDS011;30039;51.462;6.892;2023-02-01T09:16:04;15.68;;;2.42;;
44328;SDS011;30039;51.462;6.892;2023-02-01T09:18:49;14.82;;;3.47;;
44328;SDS011;30039;51.462;6.892;2023-02-01T09:21:35;13.95;;;2.90;;
44328;SDS011;30039;51.462;6.892;2023-02-01T09:24:21;13.48;;;3.00;;
44328;SDS011;30039;51.462;6.892;2023-02-01T09:27:07;20.27;;;3.30;;
44328;SDS011;30039;51.462;6.892;2023-02-01T09:29:52;12.85;;;3.20;;
44328;SDS011;30039;51.462;6.892;2023-02-01T09:32:38;17.23;;;3.38;;
44328;SDS011;30039;51.462;6.892;2023-02-01T09:35:24;16.20;;;3.17;;
44328;SDS011;30039;51.462;6.892;2023-02-01T09:38:10;19.35;;;3.28;;
44328;SDS011;30039;51.462;6.892;2023-02-01T09:40:55;20.98;;;3.22;;
44328;SDS011;30039;51.462;6.892;2023-02-01T09:43:45;11.57;;;2.70;;
44328;SDS011;30039;51.462;6.892;2023-02-01T09:46:34;17.33;;;3.40;;
44328;SDS011;30039;51.462;6.892;2023-02-01T09:49:30;14.23;;;3.00;;
44328;SDS011;30039;51.462;6.892;2023-02-01T09:52:16;17.35;;;3.15;;
44328;SDS011;30039;51.462;6.892;2023-02-01T09:55:16;17.65;;;3.13;;
44328;SDS011;30039;51.462;6.892;2023-02-01T09:58:07;12.75;;;3.20;;
44328;SDS011;30039;51.462;6.892;2023-02-01T10:00:57;12.52;;;2.65;;
44328;SDS011;30039;51.462;6.892;2023-02-01T10:03:43;17.15;;;3.78;;
44328;SDS011;30039;51.462;6.892;2023-02-01T10:06:41;13.27;;;2.55;;
44328;SDS011;30039;51.462;6.892;2023-02-01T10:21:04;16.55;;;2.90;;
44328;SDS011;30039;51.462;6.892;2023-02-01T10:26:45;10.50;;;2.50;;
44328;SDS011;30039;51.462;6.892;2023-02-01T10:29:37;16.23;;;3.45;;
44328;SDS011;30039;51.462;6.892;2023-02-01T10:32:28;14.98;;;2.92;;
44328;SDS011;30039;51.462;6.892;2023-02-01T10:35:16;13.60;;;2.92;;
44328;SDS011;30039;51.462;6.892;2023-02-01T10:38:16;19.35;;;3.47;;
44328;SDS011;30039;51.462;6.892;2023-02-01T10:41:11;12.95;;;3.25;;
44328;SDS011;30039;51.462;6.892;2023-02-01T10:43:58;11.65;;;2.42;;
44328;SDS011;30039;51.462;6.892;2023-02-01T10:46:44;14.70;;;2.95;;
44328;SDS011;30039;51.462;6.892;2023-02-01T10:49:33;15.15;;;3.08;;
44328;SDS011;30039;51.462;6.892;2023-02-01T10:52:24;19.45;;;2.88;;
44328;SDS011;30039;51.462;6.892;2023-02-01T10:58:19;12.80;;;2.80;;
44328;SDS011;30039;51.462;6.892;2023-02-01T11:01:06;14.85;;;2.95;;
44328;SDS011;30039;51.462;6.892;2023-02-01T11:04:03;16.02;;;2.95;;
44328;SDS011;30039;51.462;6.892;2023-02-01T11:07:34;11.48;;;3.33;;
44328;SDS011;30039;51.462;6.892;2023-02-01T11:09:55;17.92;;;2.78;;
44328;SDS011;30039;51.462;6.892;2023-02-01T11:12:41;12.60;;;3.00;;
44328;SDS011;30039;51.462;6.892;2023-02-01T11:15:27;18.25;;;3.28;;
44328;SDS011;30039;51.462;6.892;2023-02-01T11:18:19;13.10;;;2.47;;
44328;SDS011;30039;51.462;6.892;2023-02-01T11:21:05;15.48;;;2.45;;
44328;SDS011;30039;51.462;6.892;2023-02-01T11:23:51;12.57;;;2.97;;
44328;SDS011;30039;51.462;6.892;2023-02-01T11:26:39;18.08;;;3.28;;
44328;SDS011;30039;51.462;6.892;2023-02-01T11:29:25;9.82;;;2.80;;
44328;SDS011;30039;51.462;6.892;2023-02-01T11:32:15;14.02;;;3.70;;
44328;SDS011;30039;51.462;6.892;2023-02-01T11:35:03;16.15;;;3.53;;
44328;SDS011;30039;51.462;6.892;2023-02-01T11:37:54;14.60;;;3.45;;
44328;SDS011;30039;51.462;6.892;2023-02-01T11:40:40;13.80;;;2.75;;
44328;SDS011;30039;51.462;6.892;2023-02-01T11:43:27;8.48;;;2.30;;
44328;SDS011;30039;51.462;6.892;2023-02-01T11:46:17;9.77;;;2.03;;
44328;SDS011;30039;51.462;6.892;2023-02-01T11:49:25;13.45;;;2.88;;
44328;SDS011;30039;51.462;6.892;2023-02-01T11:52:14;10.95;;;2.63;;
44328;SDS011;30039;51.462;6.892;2023-02-01T12:09:18;14.07;;;3.22;;
44328;SDS011;30039;51.462;6.892;2023-02-01T12:15:22;13.18;;;3.65;;
44328;SDS011;30039;51.462;6.892;2023-02-01T12:36:12;14.77;;;2.58;;
44328;SDS011;30039;51.462;6.892;2023-02-01T12:41:58;8.02;;;2.17;;
44328;SDS011;30039;51.462;6.892;2023-02-01T12:47:42;12.07;;;2.25;;
44328;SDS011;30039;51.462;6.892;2023-02-01T12:50:31;12.98;;;2.28;;
44328;SDS011;30039;51.462;6.892;2023-02-01T12:53:19;10.02;;;1.92;;
44328;SDS011;30039;51.462;6.892;2023-02-01T12:56:11;11.05;;;2.03;;
44328;SDS011;30039;51.462;6.892;2023-02-01T12:58:59;10.25;;;2.20;;
44328;SDS011;30039;51.462;6.892;2023-02-01T13:01:49;12.30;;;1.88;;
44328;SDS011;30039;51.462;6.892;2023-02-01T13:04:44;11.48;;;2.60;;
44328;SDS011;30039;51.462;6.892;2023-02-01T13:13:28;8.80;;;2.05;;
44328;SDS011;30039;51.462;6.892;2023-02-01T13:16:23;12.30;;;2.20;;
44328;SDS011;30039;51.462;6.892;2023-02-01T13:19:13;14.20;;;2.70;;
44328;SDS011;30039;51.462;6.892;2023-02-01T13:22:12;17.27;;;2.63;;
44328;SDS011;30039;51.462;6.892;2023-02-01T13:25:04;8.93;;;2.33;;
44328;SDS011;30039;51.462;6.892;2023-02-01T13:27:52;7.88;;;1.90;;
44328;SDS011;30039;51.462;6.892;2023-02-01T13:31:28;14.82;;;2.42;;
44328;SDS011;30039;51.462;6.892;2023-02-01T13:39:59;11.50;;;2.05;;
44328;SDS011;30039;51.462;6.892;2023-02-01T13:42:53;12.27;;;2.30;;
44328;SDS011;30039;51.462;6.892;2023-02-01T13:45:43;10.70;;;2.10;;
44328;SDS011;30039;51.462;6.892;2023-02-01T13:48:38;8.75;;;1.83;;
44328;SDS011;30039;51.462;6.892;2023-02-01T13:51:32;11.05;;;2.20;;
44328;SDS011;30039;51.462;6.892;2023-02-01T13:54:31;14.95;;;2.60;;
44328;SDS011;30039;51.462;6.892;2023-02-01T14:00:38;14.90;;;2.30;;
44328;SDS011;30039;51.462;6.892;2023-02-01T14:03:42;13.48;;;2.17;;
44328;SDS011;30039;51.462;6.892;2023-02-01T14:09:18;13.65;;;2.42;;
44328;SDS011;30039;51.462;6.892;2023-02-01T14:15:18;12.07;;;2.25;;
44328;SDS011;30039;51.462;6.892;2023-02-01T14:21:18;13.75;;;2.28;;
44328;SDS011;30039;51.462;6.892;2023-02-01T14:26:57;14.18;;;2.83;;
44328;SDS011;30039;51.462;6.892;2023-02-01T14:29:49;16.83;;;2.25;;
44328;SDS011;30039;51.462;6.892;2023-02-01T14:32:40;9.10;;;2.22;;
44328;SDS011;30039;51.462;6.892;2023-02-01T14:35:28;12.75;;;2.47;;
44328;SDS011;30039;51.462;6.892;2023-02-01T14:38:14;17.40;;;2.53;;
44328;SDS011;30039;51.462;6.892;2023-02-01T14:44:22;11.70;;;2.42;;
44328;SDS011;30039;51.462;6.892;2023-02-01T14:47:26;9.63;;;2.30;;
44328;SDS011;30039;51.462;6.892;2023-02-01T14:53:10;9.85;;;2.20;;
44328;SDS011;30039;51.462;6.892;2023-02-01T15:01:38;11.68;;;2.45;;
44328;SDS011;30039;51.462;6.892;2023-02-01T15:04:32;12.52;;;2.78;;
44328;SDS011;30039;51.462;6.892;2023-02-01T15:07:27;10.48;;;2.70;;
44328;SDS011;30039;51.462;6.892;2023-02-01T15:10:15;12.48;;;2.25;;
44328;SDS011;30039;51.462;6.892;2023-02-01T15:13:01;8.95;;;1.70;;
44328;SDS011;30039;51.462;6.892;2023-02-01T15:16:03;10.95;;;2.63;;
44328;SDS011;30039;51.462;6.892;2023-02-01T15:18:50;12.10;;;2.75;;
44328;SDS011;30039;51.462;6.892;2023-02-01T15:21:46;11.70;;;2.08;;
44328;SDS011;30039;51.462;6.892;2023-02-01T15:24:32;8.30;;;2.08;;
44328;SDS011;30039;51.462;6.892;2023-02-01T15:27:18;8.25;;;2.13;;
44328;SDS011;30039;51.462;6.892;2023-02-01T15:30:07;8.77;;;2.40;;
44328;SDS011;30039;51.462;6.892;2023-02-01T15:42:12;10.18;;;1.90;;
44328;SDS011;30039;51.462;6.892;2023-02-01T15:45:04;9.02;;;1.95;;
44328;SDS011;30039;51.462;6.892;2023-02-01T15:47:50;10.13;;;1.90;;
44328;SDS011;30039;51.462;6.892;2023-02-01T15:50:36;15.85;;;3.03;;
44328;SDS011;30039;51.462;6.892;2023-02-01T15:53:25;10.38;;;2.40;;
44328;SDS011;30039;51.462;6.892;2023-02-01T15:56:14;11.32;;;2.55;;
44328;SDS011;30039;51.462;6.892;2023-02-01T15:59:01;13.02;;;2.67;;
44328;SDS011;30039;51.462;6.892;2023-02-01T16:01:47;8.52;;;1.95;;
44328;SDS011;30039;51.462;6.892;2023-02-01T16:04:33;9.18;;;2.50;;
44328;SDS011;30039;51.462;6.892;2023-02-01T16:07:33;8.18;;;2.25;;
44328;SDS011;30039;51.462;6.892;2023-02-01T16:10:25;16.30;;;2.40;;
44328;SDS011;30039;51.462;6.892;2023-02-01T16:13:13;12.60;;;2.65;;
44328;SDS011;30039;51.462;6.892;2023-02-01T16:15:59;14.23;;;3.08;;
44328;SDS011;30039;51.462;6.892;2023-02-01T16:18:46;15.50;;;2.70;;
44328;SDS011;30039;51.462;6.892;2023-02-01T16:21:33;15.48;;;2.83;;
44328;SDS011;30039;51.462;6.892;2023-02-01T16:24:19;9.52;;;2.05;;
44328;SDS011;30039;51.462;6.892;2023-02-01T16:27:09;18.50;;;3.38;;
44328;SDS011;30039;51.462;6.892;2023-02-01T16:29:56;19.35;;;2.72;;
44328;SDS011;30039;51.462;6.892;2023-02-01T16:32:44;8.90;;;1.80;;
44328;SDS011;30039;51.462;6.892;2023-02-01T16:35:37;12.40;;;2.72;;
44328;SDS011;30039;51.462;6.892;2023-02-01T16:38:23;13.32;;;3.00;;
44328;SDS011;30039;51.462;6.892;2023-02-01T16:41:12;10.15;;;2.40;;
44328;SDS011;30039;51.462;6.892;2023-02-01T16:43:58;12.45;;;2.38;;
44328;SDS011;30039;51.462;6.892;2023-02-01T16:46:44;14.07;;;2.85;;
44328;SDS011;30039;51.462;6.892;2023-02-01T16:49:31;9.75;;;2.08;;
44328;SDS011;30039;51.462;6.892;2023-02-01T16:52:21;12.80;;;2.42;;
44328;SDS011;30039;51.462;6.892;2023-02-01T16:55:09;10.48;;;1.95;;
44328;SDS011;30039;51.462;6.892;2023-02-01T16:57:57;7.88;;;2.15;;
44328;SDS011;30039;51.462;6.892;2023-02-01T17:00:43;11.52;;;2.53;;
44328;SDS011;30039;51.462;6.892;2023-02-01T17:03:29;8.30;;;1.70;;
44328;SDS011;30039;51.462;6.892;2023-02-01T17:06:15;12.40;;;1.90;;
44328;SDS011;30039;51.462;6.892;2023-02-01T17:09:02;11.20;;;2.15;;
44328;SDS011;30039;51.462;6.892;2023-02-01T17:11:49;13.70;;;2.35;;
44328;SDS011;30039;51.462;6.892;2023-02-01T17:14:38;11.10;;;2.15;;
44328;SDS011;30039;51.462;6.892;2023-02-01T17:17:27;12.25;;;2.25;;
44328;SDS011;30039;51.462;6.892;2023-02-01T17:20:18;10.18;;;2.03;;
44328;SDS011;30039;51.462;6.892;2023-02-01T17:23:05;9.77;;;2.05;;
44328;SDS011;30039;51.462;6.892;2023-02-01T17:25:52;11.90;;;2.28;;
44328;SDS011;30039;51.462;6.892;2023-02-01T17:28:38;12.15;;;2.42;;
44328;SDS011;30039;51.462;6.892;2023-02-01T17:31:23;13.63;;;2.42;;
44328;SDS011;30039;51.462;6.892;2023-02-01T17:34:09;12.52;;;2.15;;
44328;SDS011;30039;51.462;6.892;2023-02-01T17:36:56;13.52;;;1.90;;
44328;SDS011;30039;51.462;6.892;2023-02-01T17:39:41;11.80;;;1.92;;
44328;SDS011;30039;51.462;6.892;2023-02-01T17:42:39;14.95;;;1.95;;
44328;SDS011;30039;51.462;6.892;2023-02-01T17:46:09;11.23;;;2.50;;
44328;SDS011;30039;51.462;6.892;2023-02-01T17:48:37;6.25;;;2.13;;
44328;SDS011;30039;51.462;6.892;2023-02-01T17:51:24;10.80;;;2.45;;
44328;SDS011;30039;51.462;6.892;2023-02-01T17:54:11;11.48;;;2.38;;
44328;SDS011;30039;51.462;6.892;2023-02-01T17:56:58;11.73;;;2.45;;
44328;SDS011;30039;51.462;6.892;2023-02-01T17:59:46;11.20;;;2.47;;
44328;SDS011;30039;51.462;6.892;2023-02-01T18:02:32;15.50;;;2.45;;
44328;SDS011;30039;51.462;6.892;2023-02-01T18:08:12;10.70;;;2.08;;
44328;SDS011;30039;51.462;6.892;2023-02-01T18:10:59;13.68;;;2.47;;
44328;SDS011;30039;51.462;6.892;2023-02-01T18:13:45;12.10;;;2.30;;
44328;SDS011;30039;51.462;6.892;2023-02-01T18:16:32;9.55;;;1.95;;
44328;SDS011;30039;51.462;6.892;2023-02-01T18:19:19;11.43;;;2.10;;
44328;SDS011;30039;51.462;6.892;2023-02-01T18:22:04;10.45;;;2.22;;
44328;SDS011;30039;51.462;6.892;2023-02-01T18:24:51;12.85;;;2.42;;
44328;SDS011;30039;51.462;6.892;2023-02-01T18:27:36;10.50;;;2.70;;
44328;SDS011;30039;51.462;6.892;2023-02-01T18:30:23;16.33;;;3.03;;
44328;SDS011;30039;51.462;6.892;2023-02-01T18:33:10;10.00;;;2.38;;
44328;SDS011;30039;51.462;6.892;2023-02-01T18:35:56;8.68;;;1.98;;
44328;SDS011;30039;51.462;6.892;2023-02-01T18:38:42;11.27;;;2.40;;
44328;SDS011;30039;51.462;6.892;2023-02-01T18:41:28;14.18;;;2.60;;
44328;SDS011;30039;51.462;6.892;2023-02-01T18:44:15;11.20;;;2.40;;
44328;SDS011;30039;51.462;6.892;2023-02-01T18:47:01;17.42;;;2.58;;
44328;SDS011;30039;51.462;6.892;2023-02-01T18:49:46;15.25;;;2.95;;
44328;SDS011;30039;51.462;6.892;2023-02-01T18:52:32;15.27;;;2.60;;
44328;SDS011;30039;51.462;6.892;2023-02-01T18:55:18;9.57;;;2.65;;
44328;SDS011;30039;51.462;6.892;2023-02-01T18:58:09;11.93;;;2.90;;
44328;SDS011;30039;51.462;6.892;2023-02-01T19:00:57;16.27;;;2.90;;
44328;SDS011;30039;51.462;6.892;2023-02-01T19:03:44;16.42;;;2.78;;
44328;SDS011;30039;51.462;6.892;2023-02-01T19:06:29;12.60;;;2.80;;
44328;SDS011;30039;51.462;6.892;2023-02-01T19:09:15;13.07;;;2.47;;
44328;SDS011;30039;51.462;6.892;2023-02-01T19:12:01;10.70;;;2.22;;